• Join FlightAware (Why Join?)
  • Login
  • US Flag 
08:23AM EDT


 

Airport Tracker/Info


-or-


 

Live Flight TrackerFlight Track Log ✈ DAL6380 ✈ 24-Mar-2014 ✈ KDTW - KTVC

Flight Track Log - Related Links

Times and Time Zones

All times are in EDT time to prevent confusion due to time zone crossing. See the DAL6380 flight status page for this flight to view local times or setup timezone preferences in your user account.

Time Position Orientation Groundspeed Altitude Reporting Facility
EDT Latitude Longitude Course Direction KTS MPH feet Rate Location/Type
10:37AM 42.2103 -83.3678 North 154 177 1,300  Level Cleveland Center
10:38AM 42.1697 -83.4297 229° Southwest 203 234 4,400 2,400 Climbing Cleveland Center
10:39AM 42.1697 -83.4506 270° West 186 214 5,300 2,940 Climbing Cleveland Center
10:39AM 42.1697 -83.5086 270° West 195 224 7,700 2,880 Climbing Cleveland Center
10:40AM 42.4591 -83.3500 North  Level FlightAware Approximate
10:40AM 42.1700 -83.5256 271° West 194 223 8,300  Level Cleveland Center
10:40AM 42.1892 -83.5817 295° West 236 272 9,900 1,620 Climbing Cleveland Center
10:41AM 42.5454 -83.3500 North  Level FlightAware Approximate
10:41AM 42.2031 -83.5889 339° North 229 264 10,000  Level Cleveland Center
10:42AM 42.6318 -83.3500 North  Level FlightAware Approximate
10:42AM 42.2769 -83.6272 339° North 274 315 12,300  Level Cleveland Center
10:43AM 42.7136 -83.3500 North  Level FlightAware Approximate
10:43AM 42.3608 -83.6022 12° North 308 354 14,300  Level Cleveland Center
10:44AM 42.4478 -83.5692 16° North 315 362 16,100 1,620 Climbing Cleveland Center
10:45AM 42.5542 -83.5233 18° North 328 377 17,700 900 Climbing Cleveland Center
10:46AM 42.6506 -83.4814 18° North 355 409 18,000 120 Climbing Cleveland Center
10:47AM 42.7500 -83.4383 18° North 372 428 18,000  Level Cleveland Center
10:48AM 42.8494 -83.3950 18° North 373 429 18,000  Level Cleveland Center
10:49AM 42.9486 -83.3672 12° North 370 426 18,000  Level Cleveland Center
10:50AM 43.0292 -83.4181 335° Northwest 333 383 18,000  Level Cleveland Center
10:51AM 43.1083 -83.5144 318° Northwest 319 367 18,000  Level Cleveland Center
10:52AM 43.1753 -83.5969 318° Northwest 321 369 18,000  Level Cleveland Center
10:53AM 43.2428 -83.6786 319° Northwest 323 372 18,000  Level Cleveland Center
10:54AM 43.3106 -83.7636 318° Northwest 326 375 18,000  Level Cleveland Center
10:55AM 43.3786 -83.8467 318° Northwest 329 379 18,000  Level Cleveland Center
10:56AM 43.4467 -83.9306 318° Northwest 329 379 18,000  Level Cleveland Center
10:57AM 43.5172 -84.0178 318° Northwest 329 379 18,000  Level Cleveland Center
10:59AM 43.5983 -84.1192 318° Northwest 328 377 18,000  Level Minneapolis Center
11:00AM 43.6811 -84.2203 319° Northwest 328 377 18,000  Level Minneapolis Center
11:01AM 43.7481 -84.3069 317° Northwest 329 379 18,000  Level Minneapolis Center
11:02AM 43.8172 -84.3914 319° Northwest 329 379 18,000  Level Minneapolis Center
11:03AM 43.8853 -84.4772 318° Northwest 330 380 18,000  Level Minneapolis Center
11:04AM 43.9533 -84.5642 317° Northwest 331 381 18,000 -60 Level Minneapolis Center
11:05AM 44.0292 -84.6600 318° Northwest 332 382 17,900  Descending Minneapolis Center
11:06AM 44.0978 -84.7475 318° Northwest 333 383 18,000  Climbing Minneapolis Center
11:07AM 44.1672 -84.8367 317° Northwest 337 388 17,900 -360 Descending Minneapolis Center
11:08AM 44.2356 -84.9244 317° Northwest 337 388 17,300 -1,080 Descending Minneapolis Center
11:09AM 44.3011 -85.0086 317° Northwest 328 377 15,800 -1,620 Descending Minneapolis Center
11:10AM 44.3781 -85.1075 317° Northwest 321 369 14,000 -1,800 Descending Minneapolis Center
11:11AM 44.4417 -85.1903 317° Northwest 316 364 12,100 -1,740 Descending Minneapolis Center
11:12AM 44.5078 -85.2750 318° Northwest 320 368 10,500 -1,260 Descending Minneapolis Center
11:13AM 44.5714 -85.3300 328° Northwest 280 322 9,500 -1,380 Descending Minneapolis Center
11:14AM 44.6283 -85.3758 330° Northwest 244 281 7,700 -2,100 Descending Minneapolis Center
11:15AM 44.6844 -85.4206 330° Northwest 238 274 5,200 -2,520 Descending Minneapolis Center
11:16AM 44.7431 -85.4550 337° Northwest 218 251 2,600 -1,860 Descending Minneapolis Center
11:17AM 44.7367 -85.5069 260° West 164 189 1,500 -660 Descending Minneapolis Center
11:18AM 44.7372 -85.5578 271° West 157 181 1,300 -240 Descending Minneapolis Center